sensor_id;sensor_type;location;lat;lon;timestamp;P1;durP1;ratioP1;P2;durP2;ratioP2
52614;SDS011;38508;53.158;6.614;2023-02-24T00:01:47;7.20;;;3.05;;
52614;SDS011;38508;53.158;6.614;2023-02-24T00:04:24;8.40;;;3.20;;
52614;SDS011;38508;53.158;6.614;2023-02-24T00:06:50;8.93;;;3.20;;
52614;SDS011;38508;53.158;6.614;2023-02-24T00:09:17;7.85;;;3.47;;
52614;SDS011;38508;53.158;6.614;2023-02-24T00:11:46;8.20;;;3.53;;
52614;SDS011;38508;53.158;6.614;2023-02-24T00:14:14;9.35;;;3.47;;
52614;SDS011;38508;53.158;6.614;2023-02-24T00:16:41;11.50;;;4.18;;
52614;SDS011;38508;53.158;6.614;2023-02-24T00:19:09;13.40;;;4.20;;
52614;SDS011;38508;53.158;6.614;2023-02-24T00:21:37;9.85;;;3.45;;
52614;SDS011;38508;53.158;6.614;2023-02-24T00:24:03;9.85;;;4.15;;
52614;SDS011;38508;53.158;6.614;2023-02-24T00:26:30;15.75;;;4.40;;
52614;SDS011;38508;53.158;6.614;2023-02-24T00:28:57;12.45;;;4.68;;
52614;SDS011;38508;53.158;6.614;2023-02-24T00:31:24;11.50;;;4.40;;
52614;SDS011;38508;53.158;6.614;2023-02-24T00:33:55;9.68;;;4.50;;
52614;SDS011;38508;53.158;6.614;2023-02-24T00:36:26;8.20;;;4.95;;
52614;SDS011;38508;53.158;6.614;2023-02-24T00:38:54;10.25;;;4.82;;
52614;SDS011;38508;53.158;6.614;2023-02-24T00:41:33;15.60;;;5.60;;
52614;SDS011;38508;53.158;6.614;2023-02-24T00:44:05;14.40;;;5.05;;
52614;SDS011;38508;53.158;6.614;2023-02-24T00:46:36;7.10;;;4.70;;
52614;SDS011;38508;53.158;6.614;2023-02-24T00:49:06;10.75;;;4.65;;
52614;SDS011;38508;53.158;6.614;2023-02-24T00:51:36;17.15;;;5.32;;
52614;SDS011;38508;53.158;6.614;2023-02-24T00:54:04;13.30;;;5.45;;
52614;SDS011;38508;53.158;6.614;2023-02-24T00:56:32;13.45;;;4.57;;
52614;SDS011;38508;53.158;6.614;2023-02-24T00:58:58;11.63;;;5.22;;
52614;SDS011;38508;53.158;6.614;2023-02-24T01:01:26;12.20;;;5.50;;
52614;SDS011;38508;53.158;6.614;2023-02-24T01:03:57;11.82;;;5.90;;
52614;SDS011;38508;53.158;6.614;2023-02-24T01:06:25;12.13;;;7.25;;
52614;SDS011;38508;53.158;6.614;2023-02-24T01:08:53;11.32;;;7.15;;
52614;SDS011;38508;53.158;6.614;2023-02-24T01:11:21;15.80;;;7.50;;
52614;SDS011;38508;53.158;6.614;2023-02-24T01:14:12;9.20;;;6.60;;
52614;SDS011;38508;53.158;6.614;2023-02-24T01:16:40;10.00;;;6.80;;
52614;SDS011;38508;53.158;6.614;2023-02-24T01:19:08;9.40;;;6.47;;
52614;SDS011;38508;53.158;6.614;2023-02-24T01:21:35;7.63;;;6.70;;
52614;SDS011;38508;53.158;6.614;2023-02-24T01:24:01;14.52;;;6.97;;
52614;SDS011;38508;53.158;6.614;2023-02-24T01:26:28;12.77;;;7.28;;
52614;SDS011;38508;53.158;6.614;2023-02-24T01:28:55;13.23;;;6.70;;
52614;SDS011;38508;53.158;6.614;2023-02-24T01:31:21;11.63;;;6.50;;
52614;SDS011;38508;53.158;6.614;2023-02-24T01:33:50;7.82;;;5.90;;
52614;SDS011;38508;53.158;6.614;2023-02-24T01:36:20;14.55;;;6.70;;
52614;SDS011;38508;53.158;6.614;2023-02-24T01:38:47;14.20;;;6.40;;
52614;SDS011;38508;53.158;6.614;2023-02-24T01:41:14;8.68;;;6.40;;
52614;SDS011;38508;53.158;6.614;2023-02-24T01:43:53;16.60;;;6.28;;
52614;SDS011;38508;53.158;6.614;2023-02-24T01:46:23;8.18;;;5.57;;
52614;SDS011;38508;53.158;6.614;2023-02-24T01:49:02;14.07;;;7.18;;
52614;SDS011;38508;53.158;6.614;2023-02-24T01:51:39;12.50;;;6.70;;
52614;SDS011;38508;53.158;6.614;2023-02-24T01:54:36;16.75;;;7.40;;
52614;SDS011;38508;53.158;6.614;2023-02-24T01:57:07;13.02;;;7.15;;
52614;SDS011;38508;53.158;6.614;2023-02-24T01:59:34;14.25;;;7.65;;
52614;SDS011;38508;53.158;6.614;2023-02-24T02:02:02;17.45;;;8.10;;
52614;SDS011;38508;53.158;6.614;2023-02-24T02:04:45;14.88;;;7.50;;
52614;SDS011;38508;53.158;6.614;2023-02-24T02:07:19;18.02;;;8.13;;
52614;SDS011;38508;53.158;6.614;2023-02-24T02:09:46;19.15;;;7.93;;
52614;SDS011;38508;53.158;6.614;2023-02-24T02:12:13;15.20;;;8.13;;
52614;SDS011;38508;53.158;6.614;2023-02-24T02:14:42;15.50;;;8.35;;
52614;SDS011;38508;53.158;6.614;2023-02-24T02:17:17;14.23;;;8.27;;
52614;SDS011;38508;53.158;6.614;2023-02-24T02:34:13;12.35;;;8.90;;
52614;SDS011;38508;53.158;6.614;2023-02-24T02:39:51;10.23;;;8.60;;
52614;SDS011;38508;53.158;6.614;2023-02-24T02:42:53;13.73;;;8.45;;
52614;SDS011;38508;53.158;6.614;2023-02-24T02:48:14;11.55;;;8.93;;
52614;SDS011;38508;53.158;6.614;2023-02-24T02:51:26;13.32;;;8.07;;
52614;SDS011;38508;53.158;6.614;2023-02-24T02:54:05;12.45;;;8.50;;
52614;SDS011;38508;53.158;6.614;2023-02-24T02:57:03;20.02;;;8.30;;
52614;SDS011;38508;53.158;6.614;2023-02-24T02:59:54;10.57;;;7.68;;
52614;SDS011;38508;53.158;6.614;2023-02-24T03:02:24;10.07;;;7.45;;
52614;SDS011;38508;53.158;6.614;2023-02-24T03:04:54;14.25;;;8.15;;
52614;SDS011;38508;53.158;6.614;2023-02-24T03:07:27;12.55;;;8.80;;
52614;SDS011;38508;53.158;6.614;2023-02-24T03:10:00;12.30;;;8.90;;
52614;SDS011;38508;53.158;6.614;2023-02-24T03:12:34;16.45;;;9.57;;
52614;SDS011;38508;53.158;6.614;2023-02-24T03:15:05;14.63;;;8.57;;
52614;SDS011;38508;53.158;6.614;2023-02-24T03:17:36;11.32;;;9.30;;
52614;SDS011;38508;53.158;6.614;2023-02-24T03:20:08;9.50;;;8.55;;
52614;SDS011;38508;53.158;6.614;2023-02-24T03:22:59;10.80;;;8.85;;
52614;SDS011;38508;53.158;6.614;2023-02-24T03:31:03;12.07;;;10.63;;
52614;SDS011;38508;53.158;6.614;2023-02-24T03:33:44;17.58;;;10.75;;
52614;SDS011;38508;53.158;6.614;2023-02-24T03:36:31;12.10;;;11.07;;
52614;SDS011;38508;53.158;6.614;2023-02-24T03:38:57;14.73;;;9.90;;
52614;SDS011;38508;53.158;6.614;2023-02-24T03:41:27;15.38;;;9.98;;
52614;SDS011;38508;53.158;6.614;2023-02-24T03:43:56;12.20;;;9.57;;
52614;SDS011;38508;53.158;6.614;2023-02-24T03:46:24;12.13;;;10.15;;
52614;SDS011;38508;53.158;6.614;2023-02-24T03:48:51;13.27;;;10.32;;
52614;SDS011;38508;53.158;6.614;2023-02-24T03:51:25;14.02;;;11.60;;
52614;SDS011;38508;53.158;6.614;2023-02-24T03:53:55;26.95;;;11.18;;
52614;SDS011;38508;53.158;6.614;2023-02-24T03:56:43;19.63;;;11.10;;
52614;SDS011;38508;53.158;6.614;2023-02-24T04:02:10;22.10;;;11.30;;
52614;SDS011;38508;53.158;6.614;2023-02-24T04:05:17;11.43;;;10.30;;
52614;SDS011;38508;53.158;6.614;2023-02-24T04:10:32;12.95;;;10.20;;
52614;SDS011;38508;53.158;6.614;2023-02-24T04:16:11;16.33;;;9.98;;
52614;SDS011;38508;53.158;6.614;2023-02-24T04:18:44;17.70;;;8.82;;
52614;SDS011;38508;53.158;6.614;2023-02-24T04:21:13;17.50;;;9.57;;
52614;SDS011;38508;53.158;6.614;2023-02-24T04:23:42;10.85;;;9.43;;
52614;SDS011;38508;53.158;6.614;2023-02-24T04:26:08;17.02;;;9.10;;
52614;SDS011;38508;53.158;6.614;2023-02-24T04:28:38;14.95;;;9.15;;
52614;SDS011;38508;53.158;6.614;2023-02-24T04:31:06;10.68;;;9.00;;
52614;SDS011;38508;53.158;6.614;2023-02-24T04:33:34;12.20;;;9.15;;
52614;SDS011;38508;53.158;6.614;2023-02-24T04:36:02;12.32;;;8.63;;
52614;SDS011;38508;53.158;6.614;2023-02-24T04:38:29;12.00;;;8.50;;
52614;SDS011;38508;53.158;6.614;2023-02-24T04:40:55;10.38;;;7.80;;
52614;SDS011;38508;53.158;6.614;2023-02-24T04:43:21;13.73;;;8.60;;
52614;SDS011;38508;53.158;6.614;2023-02-24T04:45:47;12.50;;;8.52;;
52614;SDS011;38508;53.158;6.614;2023-02-24T04:48:15;15.35;;;9.20;;
52614;SDS011;38508;53.158;6.614;2023-02-24T04:50:44;9.70;;;8.73;;
52614;SDS011;38508;53.158;6.614;2023-02-24T04:53:11;12.73;;;9.27;;
52614;SDS011;38508;53.158;6.614;2023-02-24T04:55:39;15.77;;;8.98;;
52614;SDS011;38508;53.158;6.614;2023-02-24T04:58:11;13.23;;;8.45;;
52614;SDS011;38508;53.158;6.614;2023-02-24T05:00:43;12.15;;;8.00;;
52614;SDS011;38508;53.158;6.614;2023-02-24T05:03:12;9.70;;;7.50;;
52614;SDS011;38508;53.158;6.614;2023-02-24T05:05:38;8.93;;;8.02;;
52614;SDS011;38508;53.158;6.614;2023-02-24T05:08:07;13.13;;;7.13;;
52614;SDS011;38508;53.158;6.614;2023-02-24T05:10:44;14.27;;;8.00;;
52614;SDS011;38508;53.158;6.614;2023-02-24T05:13:21;11.02;;;7.38;;
52614;SDS011;38508;53.158;6.614;2023-02-24T05:15:51;11.15;;;7.93;;
52614;SDS011;38508;53.158;6.614;2023-02-24T05:18:22;13.32;;;7.80;;
52614;SDS011;38508;53.158;6.614;2023-02-24T05:20:54;12.40;;;8.18;;
52614;SDS011;38508;53.158;6.614;2023-02-24T05:23:43;15.05;;;9.25;;
52614;SDS011;38508;53.158;6.614;2023-02-24T05:26:14;12.32;;;10.45;;
52614;SDS011;38508;53.158;6.614;2023-02-24T05:28:42;13.85;;;11.85;;
52614;SDS011;38508;53.158;6.614;2023-02-24T05:31:13;14.35;;;11.95;;
52614;SDS011;38508;53.158;6.614;2023-02-24T05:33:46;15.00;;;11.73;;
52614;SDS011;38508;53.158;6.614;2023-02-24T05:36:15;14.35;;;12.95;;
52614;SDS011;38508;53.158;6.614;2023-02-24T05:38:45;13.90;;;12.73;;
52614;SDS011;38508;53.158;6.614;2023-02-24T05:41:16;14.52;;;12.85;;
52614;SDS011;38508;53.158;6.614;2023-02-24T05:43:43;14.88;;;13.50;;
52614;SDS011;38508;53.158;6.614;2023-02-24T05:46:17;23.58;;;15.38;;
52614;SDS011;38508;53.158;6.614;2023-02-24T05:48:43;18.88;;;16.70;;
52614;SDS011;38508;53.158;6.614;2023-02-24T05:51:09;18.88;;;16.63;;
52614;SDS011;38508;53.158;6.614;2023-02-24T05:53:39;18.88;;;16.55;;
52614;SDS011;38508;53.158;6.614;2023-02-24T05:56:08;21.15;;;19.13;;
52614;SDS011;38508;53.158;6.614;2023-02-24T05:58:35;24.98;;;22.83;;
52614;SDS011;38508;53.158;6.614;2023-02-24T06:01:12;25.33;;;23.10;;
52614;SDS011;38508;53.158;6.614;2023-02-24T06:03:45;26.90;;;24.55;;
52614;SDS011;38508;53.158;6.614;2023-02-24T06:06:15;26.25;;;23.95;;
52614;SDS011;38508;53.158;6.614;2023-02-24T06:08:41;29.30;;;27.23;;
52614;SDS011;38508;53.158;6.614;2023-02-24T06:11:13;31.77;;;28.60;;
52614;SDS011;38508;53.158;6.614;2023-02-24T06:13:41;32.33;;;29.05;;
52614;SDS011;38508;53.158;6.614;2023-02-24T06:16:11;32.70;;;29.90;;
52614;SDS011;38508;53.158;6.614;2023-02-24T06:18:41;34.15;;;31.70;;
52614;SDS011;38508;53.158;6.614;2023-02-24T06:21:08;36.58;;;33.17;;
52614;SDS011;38508;53.158;6.614;2023-02-24T06:23:38;36.80;;;33.80;;
52614;SDS011;38508;53.158;6.614;2023-02-24T06:26:04;40.17;;;36.92;;
52614;SDS011;38508;53.158;6.614;2023-02-24T06:28:37;40.92;;;37.60;;
52614;SDS011;38508;53.158;6.614;2023-02-24T06:31:04;39.55;;;36.15;;
52614;SDS011;38508;53.158;6.614;2023-02-24T06:33:35;41.55;;;37.65;;
52614;SDS011;38508;53.158;6.614;2023-02-24T06:36:01;39.92;;;36.38;;
52614;SDS011;38508;53.158;6.614;2023-02-24T06:38:28;38.78;;;35.10;;
52614;SDS011;38508;53.158;6.614;2023-02-24T06:40:58;41.97;;;38.55;;
52614;SDS011;38508;53.158;6.614;2023-02-24T06:43:28;41.22;;;37.78;;
52614;SDS011;38508;53.158;6.614;2023-02-24T06:45:54;43.03;;;39.58;;
52614;SDS011;38508;53.158;6.614;2023-02-24T06:48:20;43.75;;;39.67;;
52614;SDS011;38508;53.158;6.614;2023-02-24T06:50:47;43.95;;;39.47;;
52614;SDS011;38508;53.158;6.614;2023-02-24T06:53:14;44.22;;;40.28;;
52614;SDS011;38508;53.158;6.614;2023-02-24T06:55:44;43.72;;;39.88;;
52614;SDS011;38508;53.158;6.614;2023-02-24T06:58:17;42.95;;;39.45;;
52614;SDS011;38508;53.158;6.614;2023-02-24T07:00:44;44.35;;;40.20;;
52614;SDS011;38508;53.158;6.614;2023-02-24T07:03:21;46.85;;;42.53;;
52614;SDS011;38508;53.158;6.614;2023-02-24T07:05:50;47.83;;;44.25;;
52614;SDS011;38508;53.158;6.614;2023-02-24T07:08:35;50.95;;;46.45;;
52614;SDS011;38508;53.158;6.614;2023-02-24T07:11:02;50.42;;;45.75;;
52614;SDS011;38508;53.158;6.614;2023-02-24T07:13:30;49.70;;;45.60;;
52614;SDS011;38508;53.158;6.614;2023-02-24T07:16:00;50.15;;;45.85;;
52614;SDS011;38508;53.158;6.614;2023-02-24T07:18:34;54.70;;;49.33;;
52614;SDS011;38508;53.158;6.614;2023-02-24T07:21:00;51.97;;;47.30;;
52614;SDS011;38508;53.158;6.614;2023-02-24T07:23:30;51.70;;;46.88;;
52614;SDS011;38508;53.158;6.614;2023-02-24T07:25:56;55.17;;;49.35;;
52614;SDS011;38508;53.158;6.614;2023-02-24T07:28:23;53.42;;;48.55;;
52614;SDS011;38508;53.158;6.614;2023-02-24T07:30:51;59.17;;;53.05;;
52614;SDS011;38508;53.158;6.614;2023-02-24T07:33:17;53.67;;;48.97;;
52614;SDS011;38508;53.158;6.614;2023-02-24T07:35:50;53.92;;;49.28;;
52614;SDS011;38508;53.158;6.614;2023-02-24T07:38:15;53.97;;;49.50;;
52614;SDS011;38508;53.158;6.614;2023-02-24T07:40:47;55.70;;;49.55;;
52614;SDS011;38508;53.158;6.614;2023-02-24T07:43:14;53.80;;;49.08;;
52614;SDS011;38508;53.158;6.614;2023-02-24T07:45:40;56.35;;;51.25;;
52614;SDS011;38508;53.158;6.614;2023-02-24T07:48:06;57.47;;;51.47;;
52614;SDS011;38508;53.158;6.614;2023-02-24T07:50:32;54.42;;;49.40;;
52614;SDS011;38508;53.158;6.614;2023-02-24T07:52:58;55.10;;;49.88;;
52614;SDS011;38508;53.158;6.614;2023-02-24T07:55:25;55.15;;;49.83;;
52614;SDS011;38508;53.158;6.614;2023-02-24T07:57:55;56.72;;;52.03;;
52614;SDS011;38508;53.158;6.614;2023-02-24T08:00:21;59.38;;;53.08;;
52614;SDS011;38508;53.158;6.614;2023-02-24T08:02:53;61.10;;;54.40;;
52614;SDS011;38508;53.158;6.614;2023-02-24T08:05:20;57.25;;;52.25;;
52614;SDS011;38508;53.158;6.614;2023-02-24T08:07:48;63.95;;;57.40;;
52614;SDS011;38508;53.158;6.614;2023-02-24T08:10:16;65.45;;;58.85;;
52614;SDS011;38508;53.158;6.614;2023-02-24T08:12:49;65.65;;;59.42;;
52614;SDS011;38508;53.158;6.614;2023-02-24T08:15:19;65.00;;;59.17;;
52614;SDS011;38508;53.158;6.614;2023-02-24T08:17:56;63.33;;;57.05;;
52614;SDS011;38508;53.158;6.614;2023-02-24T08:20:28;65.78;;;59.60;;
52614;SDS011;38508;53.158;6.614;2023-02-24T08:23:16;64.53;;;58.75;;
52614;SDS011;38508;53.158;6.614;2023-02-24T08:25:43;65.47;;;59.40;;
52614;SDS011;38508;53.158;6.614;2023-02-24T08:28:09;63.88;;;58.15;;
52614;SDS011;38508;53.158;6.614;2023-02-24T08:30:36;66.47;;;59.58;;
52614;SDS011;38508;53.158;6.614;2023-02-24T08:33:09;61.65;;;56.10;;
52614;SDS011;38508;53.158;6.614;2023-02-24T08:35:39;59.70;;;54.33;;
52614;SDS011;38508;53.158;6.614;2023-02-24T08:38:13;61.97;;;56.20;;
52614;SDS011;38508;53.158;6.614;2023-02-24T08:40:48;61.60;;;55.08;;
52614;SDS011;38508;53.158;6.614;2023-02-24T08:43:17;60.35;;;55.25;;
52614;SDS011;38508;53.158;6.614;2023-02-24T08:48:26;60.80;;;55.38;;
52614;SDS011;38508;53.158;6.614;2023-02-24T08:51:02;61.42;;;55.38;;
52614;SDS011;38508;53.158;6.614;2023-02-24T08:53:31;60.10;;;54.25;;
52614;SDS011;38508;53.158;6.614;2023-02-24T08:55:58;59.85;;;54.65;;
52614;SDS011;38508;53.158;6.614;2023-02-24T08:58:34;58.72;;;54.30;;
52614;SDS011;38508;53.158;6.614;2023-02-24T09:01:10;60.58;;;54.72;;
52614;SDS011;38508;53.158;6.614;2023-02-24T09:03:43;57.60;;;52.50;;
52614;SDS011;38508;53.158;6.614;2023-02-24T09:06:13;59.00;;;53.20;;
52614;SDS011;38508;53.158;6.614;2023-02-24T09:08:41;57.05;;;52.25;;
52614;SDS011;38508;53.158;6.614;2023-02-24T09:11:09;52.08;;;47.38;;
52614;SDS011;38508;53.158;6.614;2023-02-24T09:13:46;52.83;;;48.10;;
52614;SDS011;38508;53.158;6.614;2023-02-24T09:16:22;54.47;;;50.33;;
52614;SDS011;38508;53.158;6.614;2023-02-24T09:18:48;51.88;;;47.15;;
52614;SDS011;38508;53.158;6.614;2023-02-24T09:21:33;50.65;;;46.28;;
52614;SDS011;38508;53.158;6.614;2023-02-24T09:24:12;51.28;;;46.83;;
52614;SDS011;38508;53.158;6.614;2023-02-24T09:26:38;49.83;;;45.78;;
52614;SDS011;38508;53.158;6.614;2023-02-24T09:29:10;51.83;;;47.28;;
52614;SDS011;38508;53.158;6.614;2023-02-24T09:31:57;51.20;;;47.00;;
52614;SDS011;38508;53.158;6.614;2023-02-24T09:34:30;50.30;;;46.10;;
52614;SDS011;38508;53.158;6.614;2023-02-24T09:36:57;52.15;;;47.72;;
52614;SDS011;38508;53.158;6.614;2023-02-24T09:39:27;52.90;;;48.13;;
52614;SDS011;38508;53.158;6.614;2023-02-24T09:41:54;54.00;;;48.72;;
52614;SDS011;38508;53.158;6.614;2023-02-24T09:44:53;54.10;;;49.75;;
52614;SDS011;38508;53.158;6.614;2023-02-24T09:47:28;53.92;;;49.42;;
52614;SDS011;38508;53.158;6.614;2023-02-24T09:53:02;52.47;;;47.55;;
52614;SDS011;38508;53.158;6.614;2023-02-24T09:58:33;55.30;;;49.75;;
52614;SDS011;38508;53.158;6.614;2023-02-24T10:01:24;51.72;;;46.63;;
52614;SDS011;38508;53.158;6.614;2023-02-24T10:04:11;49.75;;;44.63;;
52614;SDS011;38508;53.158;6.614;2023-02-24T10:07:04;54.13;;;44.05;;
52614;SDS011;38508;53.158;6.614;2023-02-24T10:12:11;63.47;;;43.70;;
52614;SDS011;38508;53.158;6.614;2023-02-24T10:15:25;59.50;;;48.28;;
52614;SDS011;38508;53.158;6.614;2023-02-24T10:17:55;70.35;;;52.70;;
52614;SDS011;38508;53.158;6.614;2023-02-24T10:20:24;82.35;;;53.88;;
52614;SDS011;38508;53.158;6.614;2023-02-24T10:29:17;60.55;;;50.92;;
52614;SDS011;38508;53.158;6.614;2023-02-24T10:34:58;68.35;;;42.53;;
52614;SDS011;38508;53.158;6.614;2023-02-24T10:37:25;55.80;;;41.28;;
52614;SDS011;38508;53.158;6.614;2023-02-24T10:40:02;40.42;;;32.70;;
52614;SDS011;38508;53.158;6.614;2023-02-24T10:42:35;51.15;;;28.27;;
52614;SDS011;38508;53.158;6.614;2023-02-24T10:45:28;55.58;;;35.85;;
52614;SDS011;38508;53.158;6.614;2023-02-24T10:47:58;52.38;;;32.67;;
52614;SDS011;38508;53.158;6.614;2023-02-24T10:52:51;71.53;;;28.10;;
52614;SDS011;38508;53.158;6.614;2023-02-24T11:01:04;49.40;;;29.83;;
52614;SDS011;38508;53.158;6.614;2023-02-24T11:04:04;62.80;;;26.30;;
52614;SDS011;38508;53.158;6.614;2023-02-24T11:07:02;45.97;;;24.92;;
52614;SDS011;38508;53.158;6.614;2023-02-24T11:09:36;46.65;;;20.13;;
52614;SDS011;38508;53.158;6.614;2023-02-24T11:12:18;51.53;;;21.85;;
52614;SDS011;38508;53.158;6.614;2023-02-24T11:15:21;50.25;;;28.75;;
52614;SDS011;38508;53.158;6.614;2023-02-24T11:18:15;52.05;;;20.52;;
52614;SDS011;38508;53.158;6.614;2023-02-24T11:20:44;48.92;;;22.88;;
52614;SDS011;38508;53.158;6.614;2023-02-24T11:26:01;54.97;;;22.17;;
52614;SDS011;38508;53.158;6.614;2023-02-24T11:31:50;45.00;;;20.83;;
52614;SDS011;38508;53.158;6.614;2023-02-24T11:37:40;52.58;;;18.30;;
52614;SDS011;38508;53.158;6.614;2023-02-24T11:40:18;41.30;;;15.35;;
52614;SDS011;38508;53.158;6.614;2023-02-24T11:45:38;49.78;;;17.70;;
52614;SDS011;38508;53.158;6.614;2023-02-24T11:48:21;43.75;;;13.77;;
52614;SDS011;38508;53.158;6.614;2023-02-24T11:53:26;40.50;;;9.48;;
52614;SDS011;38508;53.158;6.614;2023-02-24T11:56:02;38.63;;;10.10;;
52614;SDS011;38508;53.158;6.614;2023-02-24T12:04:04;31.80;;;10.90;;
52614;SDS011;38508;53.158;6.614;2023-02-24T12:06:47;33.55;;;26.48;;
52614;SDS011;38508;53.158;6.614;2023-02-24T12:09:17;31.90;;;28.65;;
52614;SDS011;38508;53.158;6.614;2023-02-24T12:12:27;32.03;;;24.23;;
52614;SDS011;38508;53.158;6.614;2023-02-24T12:17:11;37.08;;;21.80;;
52614;SDS011;38508;53.158;6.614;2023-02-24T12:19:57;41.03;;;22.50;;
52614;SDS011;38508;53.158;6.614;2023-02-24T12:22:39;30.77;;;15.15;;
52614;SDS011;38508;53.158;6.614;2023-02-24T12:25:12;36.35;;;14.80;;
52614;SDS011;38508;53.158;6.614;2023-02-24T12:33:18;21.42;;;10.57;;
52614;SDS011;38508;53.158;6.614;2023-02-24T12:41:46;31.55;;;8.82;;
52614;SDS011;38508;53.158;6.614;2023-02-24T12:47:33;22.92;;;5.38;;
52614;SDS011;38508;53.158;6.614;2023-02-24T12:50:41;20.88;;;4.90;;
52614;SDS011;38508;53.158;6.614;2023-02-24T12:53:22;13.48;;;6.10;;
52614;SDS011;38508;53.158;6.614;2023-02-24T12:56:06;15.10;;;4.75;;
52614;SDS011;38508;53.158;6.614;2023-02-24T12:58:36;22.23;;;5.63;;
52614;SDS011;38508;53.158;6.614;2023-02-24T13:01:09;15.93;;;5.32;;
52614;SDS011;38508;53.158;6.614;2023-02-24T13:15:22;12.45;;;2.88;;
52614;SDS011;38508;53.158;6.614;2023-02-24T13:17:50;6.70;;;3.38;;
52614;SDS011;38508;53.158;6.614;2023-02-24T13:20:59;8.57;;;3.10;;
52614;SDS011;38508;53.158;6.614;2023-02-24T13:23:18;8.82;;;3.92;;
52614;SDS011;38508;53.158;6.614;2023-02-24T13:25:52;10.25;;;4.13;;
52614;SDS011;38508;53.158;6.614;2023-02-24T13:31:06;10.40;;;5.15;;
52614;SDS011;38508;53.158;6.614;2023-02-24T13:33:37;7.78;;;4.18;;
52614;SDS011;38508;53.158;6.614;2023-02-24T13:36:15;7.90;;;5.20;;
52614;SDS011;38508;53.158;6.614;2023-02-24T13:38:46;13.35;;;6.25;;
52614;SDS011;38508;53.158;6.614;2023-02-24T13:43:56;12.38;;;11.15;;
52614;SDS011;38508;53.158;6.614;2023-02-24T13:46:22;18.17;;;16.45;;
52614;SDS011;38508;53.158;6.614;2023-02-24T13:54:12;25.88;;;24.48;;
52614;SDS011;38508;53.158;6.614;2023-02-24T14:03:06;40.67;;;37.83;;
52614;SDS011;38508;53.158;6.614;2023-02-24T14:05:35;44.88;;;41.05;;
52614;SDS011;38508;53.158;6.614;2023-02-24T14:08:01;50.67;;;47.20;;
52614;SDS011;38508;53.158;6.614;2023-02-24T14:10:31;52.25;;;48.63;;
52614;SDS011;38508;53.158;6.614;2023-02-24T14:13:02;58.10;;;54.05;;
52614;SDS011;38508;53.158;6.614;2023-02-24T14:15:35;50.63;;;47.83;;
52614;SDS011;38508;53.158;6.614;2023-02-24T14:18:15;50.30;;;46.75;;
52614;SDS011;38508;53.158;6.614;2023-02-24T14:20:46;47.08;;;44.10;;
52614;SDS011;38508;53.158;6.614;2023-02-24T14:23:19;44.20;;;41.15;;
52614;SDS011;38508;53.158;6.614;2023-02-24T14:26:10;53.28;;;49.17;;
52614;SDS011;38508;53.158;6.614;2023-02-24T14:28:38;51.92;;;47.67;;
52614;SDS011;38508;53.158;6.614;2023-02-24T14:31:14;56.75;;;52.10;;
52614;SDS011;38508;53.158;6.614;2023-02-24T14:33:41;55.58;;;49.75;;
52614;SDS011;38508;53.158;6.614;2023-02-24T14:36:19;53.25;;;48.60;;
52614;SDS011;38508;53.158;6.614;2023-02-24T14:39:33;51.08;;;46.47;;
52614;SDS011;38508;53.158;6.614;2023-02-24T14:41:40;49.85;;;45.38;;
52614;SDS011;38508;53.158;6.614;2023-02-24T14:44:28;53.05;;;48.65;;
52614;SDS011;38508;53.158;6.614;2023-02-24T14:49:27;45.63;;;41.22;;
52614;SDS011;38508;53.158;6.614;2023-02-24T14:52:14;40.20;;;34.75;;
52614;SDS011;38508;53.158;6.614;2023-02-24T14:54:53;36.38;;;33.22;;
52614;SDS011;38508;53.158;6.614;2023-02-24T14:57:29;39.42;;;35.35;;
52614;SDS011;38508;53.158;6.614;2023-02-24T15:00:16;31.90;;;27.88;;
52614;SDS011;38508;53.158;6.614;2023-02-24T15:03:09;36.22;;;30.88;;
52614;SDS011;38508;53.158;6.614;2023-02-24T15:05:51;37.35;;;28.58;;
52614;SDS011;38508;53.158;6.614;2023-02-24T15:08:38;29.73;;;25.73;;
52614;SDS011;38508;53.158;6.614;2023-02-24T15:11:17;34.67;;;21.63;;
52614;SDS011;38508;53.158;6.614;2023-02-24T15:13:50;34.90;;;20.40;;
52614;SDS011;38508;53.158;6.614;2023-02-24T15:16:25;29.65;;;19.02;;
52614;SDS011;38508;53.158;6.614;2023-02-24T15:18:58;33.88;;;20.08;;
52614;SDS011;38508;53.158;6.614;2023-02-24T15:21:28;26.15;;;19.65;;
52614;SDS011;38508;53.158;6.614;2023-02-24T15:24:03;41.93;;;18.43;;
52614;SDS011;38508;53.158;6.614;2023-02-24T15:26:49;23.65;;;15.75;;
52614;SDS011;38508;53.158;6.614;2023-02-24T15:29:22;30.08;;;16.73;;
52614;SDS011;38508;53.158;6.614;2023-02-24T15:31:51;20.20;;;7.45;;
52614;SDS011;38508;53.158;6.614;2023-02-24T15:34:20;11.48;;;5.43;;
52614;SDS011;38508;53.158;6.614;2023-02-24T15:36:48;17.15;;;6.13;;
52614;SDS011;38508;53.158;6.614;2023-02-24T15:39:18;19.48;;;9.27;;
52614;SDS011;38508;53.158;6.614;2023-02-24T15:41:48;16.60;;;6.45;;
52614;SDS011;38508;53.158;6.614;2023-02-24T15:46:56;27.27;;;10.45;;
52614;SDS011;38508;53.158;6.614;2023-02-24T15:49:22;23.70;;;9.88;;
52614;SDS011;38508;53.158;6.614;2023-02-24T15:51:49;32.80;;;18.27;;
52614;SDS011;38508;53.158;6.614;2023-02-24T15:54:23;27.23;;;9.15;;
52614;SDS011;38508;53.158;6.614;2023-02-24T15:57:00;29.38;;;11.40;;
52614;SDS011;38508;53.158;6.614;2023-02-24T15:59:27;24.05;;;8.55;;
52614;SDS011;38508;53.158;6.614;2023-02-24T16:01:53;19.17;;;6.80;;
52614;SDS011;38508;53.158;6.614;2023-02-24T16:04:19;16.40;;;5.55;;
52614;SDS011;38508;53.158;6.614;2023-02-24T16:06:46;13.30;;;5.70;;
52614;SDS011;38508;53.158;6.614;2023-02-24T16:09:23;16.75;;;5.90;;
52614;SDS011;38508;53.158;6.614;2023-02-24T16:11:56;14.68;;;5.90;;
52614;SDS011;38508;53.158;6.614;2023-02-24T16:14:23;16.67;;;4.13;;
52614;SDS011;38508;53.158;6.614;2023-02-24T16:16:49;15.43;;;5.97;;
52614;SDS011;38508;53.158;6.614;2023-02-24T16:19:15;18.15;;;5.28;;
52614;SDS011;38508;53.158;6.614;2023-02-24T16:21:41;16.60;;;5.70;;
52614;SDS011;38508;53.158;6.614;2023-02-24T16:24:08;22.02;;;7.93;;
52614;SDS011;38508;53.158;6.614;2023-02-24T16:26:37;21.25;;;7.35;;
52614;SDS011;38508;53.158;6.614;2023-02-24T16:29:04;33.10;;;10.43;;
52614;SDS011;38508;53.158;6.614;2023-02-24T16:31:36;23.88;;;6.38;;
52614;SDS011;38508;53.158;6.614;2023-02-24T16:34:03;25.38;;;9.50;;
52614;SDS011;38508;53.158;6.614;2023-02-24T16:36:29;22.80;;;9.00;;
52614;SDS011;38508;53.158;6.614;2023-02-24T16:38:55;32.50;;;8.38;;
52614;SDS011;38508;53.158;6.614;2023-02-24T16:41:21;29.23;;;9.27;;
52614;SDS011;38508;53.158;6.614;2023-02-24T16:43:48;23.67;;;6.07;;
52614;SDS011;38508;53.158;6.614;2023-02-24T16:46:16;26.88;;;6.78;;
52614;SDS011;38508;53.158;6.614;2023-02-24T16:48:44;30.42;;;7.10;;
52614;SDS011;38508;53.158;6.614;2023-02-24T16:51:12;37.83;;;8.68;;
52614;SDS011;38508;53.158;6.614;2023-02-24T16:53:38;18.08;;;7.25;;
52614;SDS011;38508;53.158;6.614;2023-02-24T16:56:04;26.38;;;11.00;;
52614;SDS011;38508;53.158;6.614;2023-02-24T16:58:31;28.17;;;7.60;;
52614;SDS011;38508;53.158;6.614;2023-02-24T17:00:58;26.33;;;6.28;;
52614;SDS011;38508;53.158;6.614;2023-02-24T17:05:52;40.90;;;11.68;;
52614;SDS011;38508;53.158;6.614;2023-02-24T17:08:18;48.17;;;17.38;;
52614;SDS011;38508;53.158;6.614;2023-02-24T17:10:44;33.90;;;12.10;;
52614;SDS011;38508;53.158;6.614;2023-02-24T17:13:11;32.30;;;11.77;;
52614;SDS011;38508;53.158;6.614;2023-02-24T17:15:38;38.97;;;15.60;;
52614;SDS011;38508;53.158;6.614;2023-02-24T17:18:04;39.15;;;15.10;;